createdAt,value
2022-08-18T00:04:03.250Z,8.02
2022-08-18T00:10:46.258Z,8.70
2022-08-18T00:17:28.698Z,8.40
2022-08-18T00:24:11.352Z,8.27
2022-08-18T00:30:54.337Z,7.93
2022-08-18T00:37:37.837Z,7.82
2022-08-18T00:44:20.220Z,7.93
2022-08-18T00:51:08.040Z,7.57
2022-08-18T00:57:54.215Z,7.05
2022-08-18T01:04:50.682Z,7.20
2022-08-18T01:11:33.920Z,6.88
2022-08-18T01:18:34.863Z,6.75
2022-08-18T01:25:40.370Z,7.13
2022-08-18T01:32:23.465Z,6.20
2022-08-18T01:39:08.467Z,6.25
2022-08-18T01:45:51.054Z,7.18
2022-08-18T01:52:35.310Z,6.93
2022-08-18T01:59:17.876Z,7.22
2022-08-18T02:06:02.566Z,6.97
2022-08-18T02:12:44.977Z,7.47
2022-08-18T02:19:27.615Z,6.90
2022-08-18T02:26:13.755Z,7.35
2022-08-18T02:32:58.992Z,8.30
2022-08-18T02:39:41.699Z,8.35
2022-08-18T02:46:25.015Z,8.68
2022-08-18T02:53:24.844Z,8.75
2022-08-18T03:00:10.295Z,9.15
2022-08-18T03:06:58.413Z,8.90
2022-08-18T03:13:41.539Z,8.63
2022-08-18T03:20:30.924Z,8.63
2022-08-18T03:27:13.722Z,7.05
2022-08-18T03:33:59.648Z,6.63
2022-08-18T03:40:43.191Z,6.78
2022-08-18T03:47:27.291Z,6.53
2022-08-18T03:54:13.256Z,7.05
2022-08-18T04:00:56.034Z,7.03
2022-08-18T04:07:38.375Z,6.75
2022-08-18T04:14:30.916Z,7.10
2022-08-18T04:21:16.169Z,7.30
2022-08-18T04:28:01.087Z,7.82
2022-08-18T04:34:43.502Z,6.90
2022-08-18T04:41:27.714Z,7.53
2022-08-18T04:48:10.454Z,7.68
2022-08-18T04:54:55.911Z,7.40
2022-08-18T05:01:41.354Z,7.85
2022-08-18T05:08:25.060Z,8.90
2022-08-18T05:15:08.721Z,8.85
2022-08-18T05:21:52.177Z,8.93
2022-08-18T05:28:36.955Z,9.85
2022-08-18T05:35:28.971Z,10.35
2022-08-18T05:42:21.261Z,10.73
2022-08-18T05:49:05.170Z,9.95
2022-08-18T05:56:18.510Z,11.15
2022-08-18T06:03:14.785Z,9.40
2022-08-18T06:09:57.617Z,8.10
2022-08-18T06:16:49.028Z,7.40
2022-08-18T06:24:00.799Z,6.93
2022-08-18T06:30:58.315Z,8.05
2022-08-18T06:38:34.513Z,8.68
2022-08-18T06:45:18.870Z,9.55
2022-08-18T06:52:21.954Z,8.50
2022-08-18T06:59:21.549Z,9.15
2022-08-18T07:06:21.450Z,8.07
2022-08-18T07:13:16.924Z,8.65
2022-08-18T07:20:17.275Z,7.75
2022-08-18T07:27:03.416Z,7.93
2022-08-18T07:34:20.709Z,7.00
2022-08-18T07:41:09.011Z,6.32
2022-08-18T07:55:28.263Z,6.85
2022-08-18T08:02:54.754Z,6.00
2022-08-18T08:09:58.895Z,6.43
2022-08-18T08:17:18.505Z,6.65
2022-08-18T08:24:27.263Z,6.10
2022-08-18T08:31:43.292Z,5.78
2022-08-18T08:38:42.802Z,5.93
2022-08-18T08:45:59.268Z,5.90
2022-08-18T08:52:51.016Z,6.22
2022-08-18T08:59:34.839Z,6.55
2022-08-18T09:06:43.247Z,7.55
2022-08-18T09:14:03.497Z,6.82
2022-08-18T09:20:51.492Z,7.70
2022-08-18T09:28:09.278Z,7.55
2022-08-18T09:35:08.460Z,6.40
2022-08-18T09:42:30.084Z,6.72
2022-08-18T09:49:27.842Z,6.50
2022-08-18T09:56:10.226Z,7.13
2022-08-18T10:03:04.261Z,6.22
2022-08-18T10:10:59.961Z,7.55
2022-08-18T10:17:44.550Z,7.97
2022-08-18T10:24:36.942Z,7.20
2022-08-18T10:31:24.099Z,7.57
2022-08-18T10:38:18.907Z,8.45
2022-08-18T10:45:22.091Z,8.13
2022-08-18T10:52:15.845Z,7.22
2022-08-18T10:59:28.731Z,7.47
2022-08-18T11:06:21.207Z,8.70
2022-08-18T11:13:32.624Z,7.90
2022-08-18T11:20:18.027Z,10.57
2022-08-18T11:27:15.196Z,8.50
2022-08-18T11:33:57.969Z,8.68
2022-08-18T11:48:14.986Z,8.18
2022-08-18T12:02:11.191Z,8.52
2022-08-18T12:09:06.222Z,8.38
2022-08-18T12:16:13.083Z,8.05
2022-08-18T12:22:57.011Z,7.72
2022-08-18T12:29:43.565Z,8.32
2022-08-18T12:36:27.769Z,7.88
2022-08-18T12:43:12.016Z,8.68
2022-08-18T12:49:55.427Z,7.82
2022-08-18T12:56:37.968Z,8.18
2022-08-18T13:03:20.539Z,7.60
2022-08-18T13:10:03.822Z,7.15
2022-08-18T13:16:54.165Z,8.63
2022-08-18T13:23:37.574Z,7.97
2022-08-18T13:30:31.120Z,6.90
2022-08-18T13:37:15.068Z,6.30
2022-08-18T13:43:58.136Z,5.63
2022-08-18T13:50:42.067Z,5.60
2022-08-18T13:57:27.764Z,5.90
2022-08-18T14:04:12.378Z,6.03
2022-08-18T14:10:59.475Z,6.15
2022-08-18T14:17:42.368Z,5.90
2022-08-18T14:24:43.409Z,6.35
2022-08-18T14:31:34.167Z,5.82
2022-08-18T14:38:17.337Z,5.82
2022-08-18T14:45:03.673Z,5.97
2022-08-18T14:52:01.441Z,5.90
2022-08-18T14:58:43.785Z,5.50
2022-08-18T15:05:31.703Z,6.93
2022-08-18T15:12:17.229Z,5.18
2022-08-18T15:19:00.349Z,6.00
2022-08-18T15:25:46.030Z,6.60
2022-08-18T15:32:28.440Z,5.55
2022-08-18T15:39:11.190Z,6.18
2022-08-18T15:45:57.858Z,6.40
2022-08-18T15:52:58.867Z,5.60
2022-08-18T15:59:41.350Z,6.13
2022-08-18T16:06:27.822Z,6.55
2022-08-18T16:13:15.363Z,5.80
2022-08-18T16:19:58.030Z,6.03
2022-08-18T16:26:40.416Z,6.05
2022-08-18T16:33:23.295Z,6.30
2022-08-18T16:40:08.354Z,6.15
2022-08-18T16:46:51.681Z,5.55
2022-08-18T16:53:40.059Z,5.60
2022-08-18T17:00:43.025Z,5.32
2022-08-18T17:07:25.667Z,5.93
2022-08-18T17:14:08.784Z,6.72
2022-08-18T17:20:52.319Z,7.70
2022-08-18T17:27:38.558Z,6.47
2022-08-18T17:34:27.534Z,6.85
2022-08-18T17:41:12.291Z,6.55
2022-08-18T17:48:14.043Z,7.35
2022-08-18T17:55:07.502Z,7.57
2022-08-18T18:02:22.247Z,7.93
2022-08-18T18:09:30.271Z,9.63
2022-08-18T18:16:27.151Z,9.75
2022-08-18T18:23:21.707Z,10.48
2022-08-18T18:30:19.307Z,11.05
2022-08-18T18:37:33.005Z,10.55
2022-08-18T18:44:16.228Z,10.85
2022-08-18T18:51:10.395Z,12.00
2022-08-18T18:58:16.781Z,10.88
2022-08-18T19:05:09.031Z,12.02
2022-08-18T19:12:03.605Z,11.90
2022-08-18T19:18:57.656Z,12.98
2022-08-18T19:25:56.715Z,13.80
2022-08-18T19:32:44.062Z,13.38
2022-08-18T19:39:36.545Z,13.38
2022-08-18T19:46:34.677Z,13.55
2022-08-18T19:53:31.873Z,12.88
2022-08-18T20:09:02.990Z,12.40
2022-08-18T20:16:09.121Z,13.02
2022-08-18T20:22:57.003Z,12.93
2022-08-18T20:29:46.074Z,12.65
2022-08-18T20:36:36.612Z,12.45
2022-08-18T20:43:28.909Z,11.75
2022-08-18T20:50:42.161Z,11.93
2022-08-18T20:57:25.244Z,11.43
2022-08-18T21:04:08.095Z,11.02
2022-08-18T21:11:07.550Z,10.65
2022-08-18T21:18:20.413Z,10.35
2022-08-18T21:25:03.159Z,10.30
2022-08-18T21:31:46.154Z,9.77
2022-08-18T21:38:32.470Z,10.63
2022-08-18T21:45:22.491Z,10.20
2022-08-18T21:52:04.987Z,10.35
2022-08-18T21:58:47.782Z,10.80
2022-08-18T22:05:59.022Z,10.90
2022-08-18T22:12:54.876Z,12.10
2022-08-18T22:19:37.309Z,10.57
2022-08-18T22:26:27.557Z,11.95
2022-08-18T22:33:09.925Z,11.95
2022-08-18T22:40:04.218Z,10.57
2022-08-18T22:46:46.776Z,11.30
2022-08-18T22:53:29.535Z,11.95
2022-08-18T23:00:17.062Z,12.48
2022-08-18T23:07:00.569Z,12.75
2022-08-18T23:13:42.974Z,12.07
2022-08-18T23:20:26.649Z,11.93
2022-08-18T23:27:09.361Z,12.02
2022-08-18T23:33:51.785Z,12.35
2022-08-18T23:40:37.815Z,13.15
2022-08-18T23:47:20.699Z,13.20
2022-08-18T23:54:10.097Z,13.15
